Data for 09/29/2013

Time Sea-Level Adjusted Pressure Absolute Pressure Temperature Relative Humidity Dew Point   
(mb) (inHg) (mb) (inHg) (C) (F) (%) (C) (F)
00:05 1012 29.88 841 24.83 14.3 57.7 32 -2 28.4
00:10 1012 29.88 841 24.83 14.3 57.7 33 -1.8 28.7
00:15 1012 29.88 841 24.83 14 57.3 34 -1.6 29
00:20 1012 29.88 841 24.83 13.8 56.9 34 -1.6 29.1
00:25 1012 29.88 841 24.83 13.7 56.7 33 -2 28.4
00:30 1012 29.88 841 24.83 13.8 56.8 35 -1.4 29.5
00:35 1012 29.88 841 24.83 13.7 56.7 34 -1.7 28.9
00:40 1012 29.88 841 24.83 13.9 57.1 34 -1.6 29.2
00:45 1012 29.88 841 24.83 13.8 56.8 34 -1.8 28.8
00:50 1012 29.88 841 24.83 13.7 56.6 35 -1.4 29.5
00:55 1012 29.88 841 24.83 13.6 56.4 34 -1.9 28.6
01:00 1012 29.88 841 24.83 13.6 56.4 35 -1.6 29.2
01:05 1012 29.88 841 24.83 13.6 56.4 34 -1.9 28.6
01:10 1012 29.88 841 24.83 13.8 56.8 33 -2.2 28
01:15 1012 29.88 841 24.83 14.1 57.3 33 -1.8 28.8
01:20 1012 29.88 841 24.83 13.9 57.1 33 -1.9 28.6
01:25 1012 29.88 841 24.83 13.8 56.8 34 -1.7 29
01:30 1012 29.88 841 24.83 13.7 56.6 35 -1.4 29.6
01:35 1012 29.88 841 24.83 13.7 56.6 34 -1.9 28.6
01:40 1012 29.88 841 24.83 13.6 56.5 35 -1.3 29.7
01:45 1012 29.88 841 24.83 13.3 56 35 -1.6 29.1
01:50 1012 29.88 841 24.83 13.4 56 35 -1.7 29
01:55 1011 29.85 841 24.83 13.3 56 35 -1.7 28.9
02:00 1011 29.85 840 24.81 13.3 55.9 35 -1.8 28.8
02:05 1011 29.85 840 24.81 13.2 55.7 36 -1.7 29
02:10 1011 29.85 840 24.81 13 55.4 38 -0.8 30.5
02:15 1011 29.85 840 24.81 12.4 54.4 40 -0.8 30.6
02:20 1011 29.85 840 24.81 12.4 54.3 39 -1.3 29.7
02:25 1011 29.85 840 24.81 12.6 54.6 37 -1.8 28.7
02:30 1011 29.85 840 24.81 12.8 55 38 -1.1 29.9
02:35 1011 29.85 840 24.81 12.7 54.8 37 -1.7 29
02:40 1011 29.85 840 24.81 12.8 55.1 35 -2.2 28
02:45 1011 29.85 840 24.81 13.2 55.8 39 -0.3 31.5
02:50 1011 29.85 840 24.81 12.4 54.4 42 0.1 32.1
02:55 1011 29.85 840 24.81 11.9 53.4 43 -0.3 31.5
03:00 1011 29.85 840 24.81 11.6 53 43 -0.4 31.3
03:05 1010 29.83 840 24.81 11.7 53 44 -0.2 31.7
03:10 1010 29.83 840 24.81 11.5 52.8 42 -0.8 30.5
03:15 1010 29.83 839 24.78 11.5 52.7 45 -0.1 31.9
03:20 1010 29.83 840 24.81 11.4 52.5 41 -1.4 29.5
03:25 1010 29.83 840 24.81 12.2 53.9 37 -2.2 28.1
03:30 1010 29.83 840 24.81 13.2 55.7 36 -1.4 29.5
03:35 1010 29.83 839 24.78 13.8 56.8 33 -2 28.5
03:40 1010 29.83 839 24.78 13.9 57 33 -1.9 28.6
03:45 1010 29.83 839 24.78 13.6 56.5 35 -1.6 29
03:50 1010 29.83 839 24.78 13.7 56.6 33 -2.2 28
03:55 1010 29.83 839 24.78 14.2 57.6 33 -1.9 28.5
04:00 1010 29.83 839 24.78 14.3 57.8 32 -1.9 28.6
04:05 1010 29.83 839 24.78 14.1 57.4 32 -2.3 27.9
04:10 1010 29.83 839 24.78 14.4 57.9 32 -2 28.5
04:15 1010 29.83 839 24.78 14.4 57.9 32 -2 28.3
04:20 1010 29.83 839 24.78 14.4 58 32 -2.1 28.2
04:25 1010 29.83 839 24.78 14.6 58.2 31 -2.2 28
04:30 1010 29.83 839 24.78 14.6 58.2 32 -1.7 29
04:35 1009 29.8 839 24.78 14.4 58 32 -2 28.5
04:40 1009 29.8 839 24.78 14.3 57.7 32 -2.2 28
04:45 1009 29.8 839 24.78 14.2 57.5 34 -1.3 29.7
04:50 1009 29.8 839 24.78 13.8 56.8 37 -0.5 31.1
04:55 1009 29.8 838 24.75 13.6 56.5 36 -1.1 30
05:00 1009 29.8 839 24.78 13.5 56.3 36 -1.3 29.7
05:05 1009 29.8 838 24.75 13.4 56.2 36 -1.4 29.6
05:10 1009 29.8 838 24.75 13.3 56 35 -1.6 29.1
05:15 1009 29.8 838 24.75 13.3 55.9 37 -1.2 29.9
05:20 1009 29.8 838 24.75 12.8 55.1 38 -1 30.2
05:25 1009 29.8 838 24.75 13 55.4 36 -1.7 29
05:30 1009 29.8 838 24.75 13.6 56.5 32 -2.6 27.3
05:35 1009 29.8 838 24.75 14.2 57.5 31 -2.6 27.2
05:40 1009 29.8 838 24.75 14.3 57.7 30 -2.8 27
05:45 1009 29.8 838 24.75 14.4 57.9 31 -2.6 27.3
05:50 1009 29.8 838 24.75 14.5 58 31 -2.4 27.6
05:55 1009 29.8 838 24.75 14.4 58 30 -2.9 26.7
06:00 1009 29.8 838 24.75 14.5 58.1 29 -3.2 26.2
06:05 1009 29.8 838 24.75 14.5 58.2 30 -2.8 27
06:10 1009 29.8 838 24.75 14.3 57.8 30 -3 26.6
06:15 1009 29.8 838 24.75 14.5 58 30 -2.7 27.1
06:20 1009 29.8 838 24.75 14.5 58 30 -2.7 27.1
06:25 1009 29.8 838 24.75 14.5 58 30 -2.7 27.1
06:30 1009 29.8 838 24.75 14.4 58 31 -2.6 27.3
06:35 1009 29.8 838 24.75 14.4 57.9 30 -2.7 27.1
06:40 1008 29.77 838 24.75 14.5 58.1 30 -2.9 26.8
06:45 1008 29.77 837 24.72 14.5 58.1 31 -2.2 28
06:50 1008 29.77 837 24.72 14.5 58.1 31 -2.5 27.4
06:55 1008 29.77 837 24.72 14.6 58.2 31 -2.2 28.1
07:00 1008 29.77 837 24.72 14.4 57.9 31 -2.2 28
07:05 1008 29.77 837 24.72 14.3 57.8 31 -2.3 27.9
07:10 1008 29.77 837 24.72 14.2 57.6 31 -2.5 27.4
07:15 1008 29.77 837 24.72 14.3 57.8 32 -2.3 27.9
07:20 1008 29.77 837 24.72 14.4 57.9 31 -2.5 27.6
07:25 1008 29.77 837 24.72 14.4 58 32 -1.9 28.6
07:30 1008 29.77 837 24.72 14.4 57.8 32 -2.2 28
07:35 1008 29.77 837 24.72 14.4 57.9 33 -1.8 28.8
07:40 1008 29.77 837 24.72 14.3 57.7 32 -2.1 28.2
07:45 1008 29.77 837 24.72 14.6 58.2 32 -1.6 29
07:50 1008 29.77 837 24.72 14.6 58.3 32 -1.8 28.7
07:55 1008 29.77 837 24.72 14.6 58.4 32 -1.7 29
08:00 1008 29.77 837 24.72 14.6 58.2 32 -1.7 28.9
08:05 1008 29.77 837 24.72 14.6 58.3 33 -1.4 29.4
08:10 1008 29.77 837 24.72 14.5 58.2 33 -1.4 29.6
08:15 1008 29.77 837 24.72 14.6 58.2 33 -1.6 29.2
08:20 1008 29.77 837 24.72 14.7 58.5 33 -1.3 29.6
08:25 1008 29.77 837 24.72 14.8 58.6 33 -1.2 29.8
08:30 1008 29.77 837 24.72 15 59 32 -1.3 29.7
08:35 1008 29.77 837 24.72 15.5 59.9 31 -1.4 29.4
08:40 1008 29.77 837 24.72 15.8 60.5 31 -1.1 30.1
08:45 1008 29.77 837 24.72 16.1 60.9 31 -1.1 30.1
08:50 1008 29.77 837 24.72 16 60.9 31 -1.2 29.9
08:55 1008 29.77 837 24.72 16 60.8 31 -0.9 30.5
09:00 1008 29.77 837 24.72 15.9 60.5 32 -0.9 30.4
09:05 1008 29.77 837 24.72 15.8 60.4 32 -0.7 30.7
09:10 1008 29.77 837 24.72 16.2 61.2 30 -1 30.2
09:15 1007 29.74 836 24.69 16.2 61.2 30 -1.5 29.4
09:20 1007 29.74 837 24.72 16.1 61.1 30 -1.4 29.5
09:25 1007 29.74 837 24.72 16 60.8 31 -1.2 29.8
09:30 1007 29.74 837 24.72 16 60.7 30 -1.3 29.6
09:35 1007 29.74 837 24.72 16 60.8 30 -1.4 29.5
09:40 1007 29.74 836 24.69 16.3 61.3 30 -1.4 29.5
09:45 1007 29.74 837 24.72 16.4 61.4 31 -0.8 30.6
09:50 1007 29.74 837 24.72 16.2 61.2 31 -0.8 30.5
09:55 1007 29.74 837 24.72 16.2 61.2 31 -0.7 30.7
10:00 1008 29.77 837 24.72 16.1 61.1 31 -0.7 30.7
10:05 1008 29.77 837 24.72 16 60.8 31 -1.2 29.9
10:10 1008 29.77 837 24.72 15.9 60.5 31 -1.2 29.9
10:15 1008 29.77 837 24.72 15.7 60.3 32 -0.8 30.6
10:20 1008 29.77 837 24.72 15.6 60.1 32 -0.8 30.6
10:25 1008 29.77 837 24.72 15.5 60 33 -0.6 30.9
10:30 1008 29.77 837 24.72 15.6 60 33 -0.5 31.2
10:35 1008 29.77 837 24.72 15.6 60 32 -0.8 30.6
10:40 1008 29.77 837 24.72 15.6 60 33 -0.4 31.4
10:45 1008 29.77 837 24.72 15.5 60 33 -0.6 30.9
10:50 1008 29.77 837 24.72 15.5 59.9 33 -0.4 31.2
10:55 1008 29.77 837 24.72 15.6 60 33 -0.8 30.6
11:00 1008 29.77 837 24.72 15.6 60.1 33 -0.6 30.9
11:05 1008 29.77 837 24.72 16 60.7 32 -0.5 31.1
11:10 1008 29.77 837 24.72 16.2 61.1 32 -0.4 31.3
11:15 1008 29.77 837 24.72 16.2 61.2 32 -0.5 31.1
11:20 1008 29.77 837 24.72 16.5 61.7 31 -0.6 30.9
11:25 1008 29.77 837 24.72 16.7 62 32 -0 31.9
11:30 1008 29.77 837 24.72 16.2 61.2 33 0.2 32.3
11:35 1008 29.77 837 24.72 16.4 61.4 33 -0 31.9
11:40 1008 29.77 837 24.72 16.4 61.5 33 0.1 32.2
11:45 1008 29.77 837 24.72 16.3 61.3 32 -0.2 31.6
11:50 1008 29.77 837 24.72 16.2 61.2 33 0 32.1
11:55 1008 29.77 837 24.72 16.6 61.8 31 -0.3 31.4
12:00 1008 29.77 837 24.72 16.6 61.9 31 -0.5 31.1
12:05 1008 29.77 837 24.72 16.7 62.1 31 -0.4 31.3
12:10 1008 29.77 837 24.72 16.7 62 31 -0.5 31.1
12:15 1007 29.74 837 24.72 16.5 61.6 31 -0.4 31.2
12:20 1007 29.74 837 24.72 16.4 61.6 31 -0.6 31
12:25 1008 29.77 837 24.72 16.3 61.3 32 -0.5 31.1
12:30 1008 29.77 837 24.72 16.3 61.3 32 -0.6 31
12:35 1008 29.77 837 24.72 16.2 61.1 32 -0.6 30.9
12:40 1008 29.77 837 24.72 16.1 60.9 38 1.9 35.4
12:45 1009 29.8 838 24.75 13.2 55.8 56 4.7 40.4
12:50 1009 29.8 838 24.75 10.8 51.5 61 3.7 38.6
12:55 1009 29.8 838 24.75 9.9 49.9 68 4.4 40
13:00 1009 29.8 838 24.75 9 48.2 71 4.2 39.5
13:05 1009 29.8 839 24.78 8.9 47.9 74 4.5 40.1
13:10 1009 29.8 839 24.78 9 48.1 75 4.8 40.7
13:15 1010 29.83 839 24.78 8.7 47.7 78 5.1 41.1
13:20 1010 29.83 839 24.78 8.6 47.5 79 5.2 41.3
13:25 1010 29.83 839 24.78 8.6 47.6 81 5.5 41.9
13:30 1010 29.83 839 24.78 8.7 47.7 79 5.3 41.6
13:35 1010 29.83 840 24.81 8.6 47.5 77 4.9 40.8
13:40 1011 29.85 840 24.81 8.1 46.6 78 4.5 40.1
13:45 1011 29.85 840 24.81 7.7 45.9 80 4.5 40.1
13:50 1011 29.85 840 24.81 7.6 45.6 81 4.5 40.1
13:55 1011 29.85 840 24.81 7.4 45.3 83 4.8 40.6
14:00 1011 29.85 840 24.81 7.3 45.2 84 4.8 40.6
14:05 1011 29.85 841 24.83 7.1 44.8 85 4.7 40.5
14:10 1011 29.85 841 24.83 6.9 44.4 85 4.5 40.2
14:15 1011 29.85 841 24.83 6.7 44.1 86 4.6 40.2
14:20 1011 29.85 841 24.83 6.5 43.8 85 4.2 39.6
14:25 1011 29.85 840 24.81 6.4 43.6 86 4.2 39.6
14:30 1011 29.85 840 24.81 6.4 43.5 86 4.2 39.5
14:35 1011 29.85 840 24.81 6.3 43.4 88 4.4 39.9
14:40 1011 29.85 841 24.83 6.4 43.5 88 4.6 40.2
14:45 1011 29.85 840 24.81 6.4 43.5 87 4.4 40
14:50 1011 29.85 840 24.81 6.4 43.5 86 4.2 39.5
14:55 1011 29.85 840 24.81 6.4 43.5 88 4.5 40.1
15:00 1011 29.85 841 24.83 6.4 43.6 87 4.5 40.1
15:05 1011 29.85 841 24.83 6.4 43.5 87 4.3 39.7
15:10 1011 29.85 841 24.83 6.2 43.2 87 4.3 39.8
15:15 1011 29.85 841 24.83 6.3 43.3 87 4.3 39.7
15:20 1011 29.85 841 24.83 6.2 43.2 88 4.4 39.8
15:25 1012 29.88 841 24.83 6.2 43.1 89 4.5 40.1
15:30 1012 29.88 841 24.83 6.1 43.1 90 4.6 40.2
15:35 1012 29.88 841 24.83 6.2 43.1 88 4.3 39.7
15:40 1011 29.85 841 24.83 5.9 42.6 89 4.2 39.6
15:45 1011 29.85 840 24.81 5.4 41.8 88 3.6 38.4
15:50 1011 29.85 840 24.81 5.6 42 86 3.5 38.2
15:55 1011 29.85 840 24.81 5.6 42.1 86 3.5 38.3
16:00 1011 29.85 840 24.81 5.7 42.2 88 3.9 39
16:05 1011 29.85 840 24.81 5.9 42.6 84 3.3 38
16:10 1011 29.85 840 24.81 5.9 42.5 85 3.6 38.4
16:15 1011 29.85 841 24.83 5.9 42.7 84 3.4 38.1
16:20 1011 29.85 841 24.83 5.7 42.3 86 3.5 38.3
16:25 1011 29.85 841 24.83 5.7 42.2 84 3.2 37.8
16:30 1011 29.85 841 24.83 5.8 42.4 82 2.9 37.2
16:35 1011 29.85 841 24.83 5.8 42.4 84 3.3 37.9
16:40 1011 29.85 840 24.81 5.9 42.6 82 3.1 37.6
16:45 1011 29.85 841 24.83 5.8 42.4 84 3.3 38
16:50 1011 29.85 840 24.81 5.7 42.2 82 2.8 37.1
16:55 1011 29.85 841 24.83 5.5 41.8 84 2.9 37.3
17:00 1011 29.85 841 24.83 5.3 41.6 85 3.1 37.6
17:05 1011 29.85 840 24.81 5.3 41.6 84 2.9 37.2
17:10 1011 29.85 840 24.81 5.4 41.7 86 3.2 37.8
17:15 1011 29.85 840 24.81 5.4 41.8 84 3 37.4
17:20 1011 29.85 840 24.81 5.4 41.8 84 3 37.4
17:25 1011 29.85 840 24.81 5.4 41.7 85 3.1 37.6
17:30 1011 29.85 840 24.81 5.4 41.7 84 2.9 37.2
17:35 1011 29.85 840 24.81 5.3 41.5 85 2.9 37.3
17:40 1011 29.85 841 24.83 5.3 41.6 82 2.6 36.6
17:45 1011 29.85 841 24.83 5.4 41.8 83 2.7 36.9
17:50 1011 29.85 840 24.81 5.5 41.8 83 2.7 36.9
17:55 1011 29.85 841 24.83 5.5 41.8 83 2.8 37.1
18:00 1011 29.85 841 24.83 5.6 42.1 82 2.8 37.1
18:05 1012 29.88 841 24.83 5.6 42.2 80 2.5 36.6
18:10 1012 29.88 841 24.83 5.7 42.3 83 3.1 37.6
18:15 1012 29.88 841 24.83 5.8 42.4 83 3.1 37.7
18:20 1012 29.88 841 24.83 5.8 42.5 86 3.6 38.5
18:25 1012 29.88 841 24.83 5.7 42.3 84 3.2 37.7
18:30 1012 29.88 841 24.83 5.7 42.3 83 3 37.5
18:35 1012 29.88 841 24.83 5.7 42.3 85 3.4 38.1
18:40 1012 29.88 841 24.83 5.7 42.2 85 3.4 38.1
18:45 1012 29.88 841 24.83 5.6 42.2 87 3.6 38.5
18:50 1012 29.88 842 24.86 5.6 42.1 86 3.5 38.2
18:55 1012 29.88 842 24.86 5.6 42.1 88 3.7 38.7
19:00 1012 29.88 842 24.86 5.6 42 86 3.5 38.2
19:05 1012 29.88 842 24.86 5.6 42 87 3.5 38.4
19:10 1012 29.88 842 24.86 5.5 41.9 86 3.4 38.1
19:15 1012 29.88 842 24.86 5.5 41.8 88 3.6 38.4
19:20 1012 29.88 842 24.86 5.4 41.8 88 3.5 38.4
19:25 1012 29.88 842 24.86 5.5 41.9 87 3.4 38.2
19:30 1013 29.91 842 24.86 5.5 41.9 85 3.3 37.9
19:35 1013 29.91 842 24.86 5.6 42 86 3.4 38.2
19:40 1013 29.91 842 24.86 5.5 42 87 3.6 38.5
19:45 1013 29.91 842 24.86 5.4 41.7 88 3.6 38.4
19:50 1013 29.91 842 24.86 5.3 41.6 88 3.5 38.4
19:55 1012 29.88 842 24.86 5.2 41.4 89 3.6 38.5
20:00 1012 29.88 842 24.86 5.1 41.2 90 3.6 38.4
20:05 1012 29.88 842 24.86 5.1 41.2 90 3.6 38.4
20:10 1012 29.88 842 24.86 5.2 41.3 91 3.8 38.8
20:15 1012 29.88 841 24.83 5.1 41.2 90 3.6 38.6
20:20 1012 29.88 841 24.83 5.1 41.2 91 3.7 38.6
20:25 1012 29.88 841 24.83 5.1 41.2 90 3.6 38.4
20:30 1012 29.88 841 24.83 5.2 41.4 90 3.7 38.7
20:35 1012 29.88 841 24.83 5.3 41.5 88 3.5 38.3
20:40 1012 29.88 841 24.83 5.4 41.7 87 3.4 38.2
20:45 1012 29.88 841 24.83 5.4 41.8 88 3.5 38.4
20:50 1012 29.88 841 24.83 5.4 41.8 88 3.5 38.4
20:55 1012 29.88 841 24.83 5.5 41.9 85 3.2 37.8
21:00 1012 29.88 841 24.83 5.8 42.4 82 2.9 37.2
21:05 1012 29.88 841 24.83 5.9 42.7 82 3.1 37.6
21:10 1012 29.88 841 24.83 6 42.8 81 3 37.4
21:15 1012 29.88 841 24.83 6.1 42.9 84 3.5 38.3
21:20 1011 29.85 841 24.83 6 42.7 83 3.2 37.8
21:25 1011 29.85 841 24.83 6.1 43 83 3.5 38.3
21:30 1011 29.85 840 24.81 6 42.8 86 3.8 38.9
21:35 1011 29.85 840 24.81 5.8 42.4 86 3.6 38.5
21:40 1011 29.85 840 24.81 5.7 42.3 86 3.6 38.5
21:45 1011 29.85 840 24.81 5.7 42.2 87 3.7 38.6
21:50 1011 29.85 840 24.81 5.6 42.2 87 3.7 38.7
21:55 1011 29.85 840 24.81 5.5 41.9 90 4 39.2
22:00 1011 29.85 840 24.81 5.3 41.5 91 4 39.2
22:05 1011 29.85 840 24.81 5.2 41.3 92 3.9 39
22:10 1011 29.85 840 24.81 5.2 41.4 91 3.8 38.9
22:15 1011 29.85 840 24.81 5.2 41.4 91 3.9 38.9
22:20 1011 29.85 840 24.81 5.3 41.5 90 3.8 38.9
22:25 1011 29.85 840 24.81 5.4 41.7 89 3.8 38.8
22:30 1010 29.83 840 24.81 5.4 41.8 90 4 39.1
22:35 1010 29.83 840 24.81 5.4 41.7 89 3.8 38.8
22:40 1010 29.83 839 24.78 5.4 41.8 90 4 39.2
22:45 1010 29.83 839 24.78 5.4 41.7 91 4 39.1
22:50 1010 29.83 839 24.78 5.4 41.7 91 4.1 39.4
22:55 1010 29.83 839 24.78 5.4 41.6 92 4.2 39.5
23:00 1010 29.83 839 24.78 5.4 41.7 92 4.2 39.5
23:05 1010 29.83 839 24.78 5.3 41.6 92 4.2 39.5
23:10 1010 29.83 839 24.78 5.4 41.7 92 4.1 39.4
23:15 1010 29.83 839 24.78 5.4 41.8 92 4.2 39.6
23:20 1010 29.83 839 24.78 5.5 41.8 92 4.2 39.6
23:25 1010 29.83 839 24.78 5.5 41.9 91 4.1 39.4
23:30 1010 29.83 839 24.78 5.6 42.1 90 4.2 39.5
23:35 1010 29.83 839 24.78 5.6 42.1 91 4.3 39.7
23:40 1010 29.83 839 24.78 5.7 42.3 91 4.3 39.8
23:45 1010 29.83 839 24.78 5.8 42.5 90 4.3 39.8
23:50 1009 29.8 839 24.78 5.9 42.6 90 4.4 40
23:55 1009 29.8 839 24.78 6.1 42.9 88 4.2 39.6
24:00 1009 29.8 838 24.75 6.2 43.2 88 4.4 39.9